createdAt,value
2023-07-02T00:00:13.744Z,99155.91
2023-07-02T00:02:41.049Z,99156.54
2023-07-02T00:05:08.624Z,99150.19
2023-07-02T00:07:37.958Z,99146.32
2023-07-02T00:10:05.752Z,99147.67
2023-07-02T00:12:33.162Z,99144.77
2023-07-02T00:15:01.589Z,99142.04
2023-07-02T00:17:29.015Z,99139.24
2023-07-02T00:19:56.558Z,99141.48
2023-07-02T00:22:24.017Z,99142.93
2023-07-02T00:24:52.425Z,99144.80
2023-07-02T00:27:20.206Z,99143.23
2023-07-02T00:29:47.669Z,99141.04
2023-07-02T00:32:15.221Z,99138.12
2023-07-02T00:34:42.532Z,99139.42
2023-07-02T00:37:09.956Z,99143.23
2023-07-02T00:39:37.617Z,99141.66
2023-07-02T00:42:05.892Z,99137.89
2023-07-02T00:44:33.374Z,99142.14
2023-07-02T00:47:01.060Z,99141.70
2023-07-02T00:49:28.551Z,99150.27
2023-07-02T00:51:56.268Z,99146.14
2023-07-02T00:54:23.759Z,99149.01
2023-07-02T00:56:51.629Z,99149.42
2023-07-02T00:59:18.989Z,99149.17
2023-07-02T01:01:51.071Z,99149.59
2023-07-02T01:04:20.314Z,99152.30
2023-07-02T01:06:47.725Z,99153.80
2023-07-02T01:09:15.073Z,99148.15
2023-07-02T01:11:51.824Z,99147.59
2023-07-02T01:14:39.173Z,99147.89
2023-07-02T01:17:06.979Z,99149.83
2023-07-02T01:19:45.692Z,99151.86
2023-07-02T01:22:13.065Z,99151.89
2023-07-02T01:24:40.524Z,99149.50
2023-07-02T01:27:08.028Z,99139.16
2023-07-02T01:29:38.540Z,99135.83
2023-07-02T01:32:07.105Z,99135.73
2023-07-02T01:34:34.477Z,99135.41
2023-07-02T01:37:02.724Z,99135.02
2023-07-02T01:39:30.080Z,99132.23
2023-07-02T01:42:11.158Z,99136.65
2023-07-02T01:44:38.857Z,99136.02
2023-07-02T01:47:06.563Z,99136.00
2023-07-02T01:49:33.997Z,99133.84
2023-07-02T01:52:01.366Z,99135.64
2023-07-02T01:54:29.425Z,99131.97
2023-07-02T01:56:57.129Z,99135.25
2023-07-02T01:59:25.164Z,99137.95
2023-07-02T02:01:52.777Z,99139.72
2023-07-02T02:04:20.180Z,99139.53
2023-07-02T02:06:47.598Z,99142.67
2023-07-02T02:09:15.096Z,99142.21
2023-07-02T02:11:44.548Z,99142.75
2023-07-02T02:14:11.879Z,99139.55
2023-07-02T02:16:39.322Z,99139.74
2023-07-02T02:19:06.750Z,99141.70
2023-07-02T02:21:34.122Z,99145.85
2023-07-02T02:24:01.454Z,99146.71
2023-07-02T02:26:28.884Z,99147.63
2023-07-02T02:28:56.204Z,99145.70
2023-07-02T02:31:23.885Z,99146.99
2023-07-02T02:33:51.525Z,99139.98
2023-07-02T02:36:18.955Z,99140.44
2023-07-02T02:38:46.400Z,99142.95
2023-07-02T02:41:13.992Z,99141.45
2023-07-02T02:43:45.414Z,99139.19
2023-07-02T02:46:23.686Z,99144.19
2023-07-02T02:48:51.488Z,99142.69
2023-07-02T02:51:18.922Z,99139.52
2023-07-02T02:53:47.390Z,99145.70
2023-07-02T02:56:15.064Z,99145.55
2023-07-02T02:58:42.724Z,99143.16
2023-07-02T03:01:11.855Z,99141.39
2023-07-02T03:03:40.356Z,99143.23
2023-07-02T03:06:07.832Z,99142.28
2023-07-02T03:08:35.211Z,99143.27
2023-07-02T03:11:02.710Z,99142.97
2023-07-02T03:13:30.104Z,99139.93
2023-07-02T03:15:57.427Z,99142.88
2023-07-02T03:18:25.003Z,99145.50
2023-07-02T03:20:52.345Z,99149.27
2023-07-02T03:23:19.702Z,99147.04
2023-07-02T03:25:46.994Z,99142.02
2023-07-02T03:28:14.324Z,99138.89
2023-07-02T03:30:41.838Z,99135.73
2023-07-02T03:33:10.788Z,99138.57
2023-07-02T03:35:38.181Z,99135.30
2023-07-02T03:38:07.175Z,99136.97
2023-07-02T03:40:34.522Z,99136.02
2023-07-02T03:43:01.863Z,99133.25
2023-07-02T03:45:29.420Z,99130.84
2023-07-02T03:47:57.354Z,99127.14
2023-07-02T03:51:24.437Z,99136.96
2023-07-02T03:53:51.215Z,99128.65
2023-07-02T03:56:17.951Z,99130.35
2023-07-02T03:58:44.688Z,99127.89
2023-07-02T04:01:11.368Z,99129.58
2023-07-02T04:03:39.050Z,99135.45
2023-07-02T04:06:08.838Z,99135.60
2023-07-02T04:08:35.620Z,99131.27
2023-07-02T04:11:02.805Z,99133.69
2023-07-02T04:13:30.241Z,99133.65
2023-07-02T04:15:57.742Z,99136.91
2023-07-02T04:18:24.407Z,99136.00
2023-07-02T04:20:51.373Z,99137.84
2023-07-02T04:23:18.029Z,99140.45
2023-07-02T04:26:10.662Z,99143.54
2023-07-02T04:28:32.314Z,99142.30
2023-07-02T04:30:58.859Z,99139.47
2023-07-02T04:33:25.306Z,99136.93
2023-07-02T04:35:51.825Z,99137.80
2023-07-02T04:38:18.877Z,99140.54
2023-07-02T04:40:46.109Z,99141.88
2023-07-02T04:43:13.032Z,99139.04
2023-07-02T04:45:39.871Z,99134.00
2023-07-02T04:48:06.960Z,99135.09
2023-07-02T04:50:36.743Z,99136.09
2023-07-02T04:53:03.285Z,99132.64
2023-07-02T04:55:31.853Z,99126.97
2023-07-02T04:57:59.016Z,99128.67
2023-07-02T05:00:25.779Z,99126.31
2023-07-02T05:02:52.415Z,99126.02
2023-07-02T05:05:19.039Z,99131.42
2023-07-02T05:07:47.434Z,99128.88
2023-07-02T05:10:14.432Z,99131.27
2023-07-02T05:12:42.893Z,99133.69
2023-07-02T05:15:10.049Z,99135.95
2023-07-02T05:17:38.985Z,99136.50
2023-07-02T05:20:06.361Z,99131.96
2023-07-02T05:22:33.220Z,99127.80
2023-07-02T05:24:59.830Z,99128.60
2023-07-02T05:27:26.414Z,99134.48
2023-07-02T05:29:53.348Z,99133.51
2023-07-02T05:32:20.046Z,99130.95
2023-07-02T05:34:46.673Z,99132.38
2023-07-02T05:37:13.231Z,99130.23
2023-07-02T05:39:39.664Z,99129.98
2023-07-02T05:42:06.241Z,99127.80
2023-07-02T05:44:32.966Z,99124.35
2023-07-02T05:46:59.570Z,99123.55
2023-07-02T05:49:26.787Z,99122.31
2023-07-02T05:51:53.365Z,99119.61
2023-07-02T05:54:19.887Z,99120.46
2023-07-02T05:56:46.267Z,99117.51
2023-07-02T05:59:16.268Z,99116.98
2023-07-02T06:01:45.030Z,99114.01
2023-07-02T06:04:12.782Z,99108.63
2023-07-02T06:06:39.591Z,99105.82
2023-07-02T06:09:06.267Z,99108.63
2023-07-02T06:11:32.976Z,99108.88
2023-07-02T06:13:59.496Z,99111.14
2023-07-02T06:16:26.008Z,99107.46
2023-07-02T06:18:53.135Z,99107.81
2023-07-02T06:21:20.501Z,99109.08
2023-07-02T06:23:47.486Z,99110.56
2023-07-02T06:26:13.925Z,99108.42
2023-07-02T06:28:42.215Z,99106.92
2023-07-02T06:31:09.189Z,99108.61
2023-07-02T06:33:39.366Z,99105.55
2023-07-02T06:36:05.948Z,99108.61
2023-07-02T06:38:33.064Z,99108.88
2023-07-02T06:41:00.220Z,99106.73
2023-07-02T06:43:26.758Z,99103.20
2023-07-02T06:45:53.538Z,99110.18
2023-07-02T06:48:22.437Z,99111.65
2023-07-02T06:50:50.058Z,99109.48
2023-07-02T06:53:17.205Z,99107.46
2023-07-02T06:55:44.204Z,99106.46
2023-07-02T06:58:10.942Z,99104.73
2023-07-02T07:00:37.593Z,99103.59
2023-07-02T07:03:04.372Z,99106.66
2023-07-02T07:05:31.740Z,99111.19
2023-07-02T07:08:00.072Z,99111.48
2023-07-02T07:10:29.156Z,99112.52
2023-07-02T07:12:55.840Z,99113.84
2023-07-02T07:15:22.399Z,99115.40
2023-07-02T07:17:49.331Z,99116.34
2023-07-02T07:20:16.191Z,99114.25
2023-07-02T07:22:42.968Z,99116.15
2023-07-02T07:25:09.647Z,99112.05
2023-07-02T07:27:36.791Z,99106.41
2023-07-02T07:30:03.654Z,99107.58
2023-07-02T07:32:31.337Z,99104.95
2023-07-02T07:34:57.888Z,99102.93
2023-07-02T07:37:27.157Z,99098.09
2023-07-02T07:39:54.530Z,99093.95
2023-07-02T07:42:21.242Z,99093.17
2023-07-02T07:44:47.943Z,99087.59
2023-07-02T07:47:14.513Z,99080.06
2023-07-02T07:49:41.249Z,99081.54
2023-07-02T07:52:08.512Z,99081.36
2023-07-02T07:54:35.910Z,99084.49
2023-07-02T07:57:04.350Z,99084.17
2023-07-02T07:59:32.402Z,99086.27
2023-07-02T08:01:59.216Z,99082.92
2023-07-02T08:04:25.866Z,99080.89
2023-07-02T08:06:52.395Z,99083.52
2023-07-02T08:09:19.372Z,99083.77
2023-07-02T08:11:46.542Z,99083.05
2023-07-02T08:14:13.291Z,99076.98
2023-07-02T08:16:40.049Z,99075.70
2023-07-02T08:19:06.689Z,99074.89
2023-07-02T08:21:33.920Z,99072.94
2023-07-02T08:24:00.597Z,99074.22
2023-07-02T08:26:27.374Z,99072.65
2023-07-02T08:28:54.048Z,99066.42
2023-07-02T08:31:20.763Z,99064.16
2023-07-02T08:33:47.620Z,99066.89
2023-07-02T08:36:14.272Z,99065.86
2023-07-02T08:38:42.590Z,99064.48
2023-07-02T08:41:09.179Z,99060.02
2023-07-02T08:43:36.196Z,99057.42
2023-07-02T08:46:02.842Z,99061.31
2023-07-02T08:48:29.965Z,99064.19
2023-07-02T08:50:56.837Z,99063.62
2023-07-02T08:53:33.737Z,99069.95
2023-07-02T08:56:01.323Z,99070.69
2023-07-02T08:58:28.007Z,99072.73
2023-07-02T09:01:13.958Z,99066.91
2023-07-02T09:03:41.784Z,99068.86
2023-07-02T09:06:09.831Z,99066.97
2023-07-02T09:08:36.865Z,99064.87
2023-07-02T09:11:09.498Z,99064.52
2023-07-02T09:13:46.027Z,99061.61
2023-07-02T09:16:21.699Z,99062.98
2023-07-02T09:18:58.001Z,99054.85
2023-07-02T09:21:44.028Z,99050.34
2023-07-02T09:24:26.164Z,99052.30
2023-07-02T09:26:56.772Z,99051.15
2023-07-02T09:29:33.358Z,99049.58
2023-07-02T09:32:09.986Z,99047.48
2023-07-02T09:34:41.010Z,99046.48
2023-07-02T09:37:07.777Z,99049.59
2023-07-02T09:39:35.866Z,99048.52
2023-07-02T09:42:06.530Z,99048.40
2023-07-02T09:44:34.332Z,99046.66
2023-07-02T09:47:07.960Z,99049.14
2023-07-02T09:49:36.396Z,99045.12
2023-07-02T09:52:08.879Z,99041.73
2023-07-02T09:54:36.231Z,99043.38
2023-07-02T09:57:03.148Z,99040.27
2023-07-02T09:59:29.909Z,99039.86
2023-07-02T10:01:57.021Z,99026.52
2023-07-02T10:04:24.481Z,99024.61
2023-07-02T10:06:52.976Z,99023.78
2023-07-02T10:09:20.848Z,99023.95
2023-07-02T10:11:47.562Z,99013.81
2023-07-02T10:14:14.489Z,99018.25
2023-07-02T10:16:51.153Z,99017.92
2023-07-02T10:19:18.180Z,99013.36
2023-07-02T10:21:50.505Z,99009.33
2023-07-02T10:24:20.421Z,99010.75
2023-07-02T10:26:56.754Z,99011.42
2023-07-02T10:29:25.006Z,99013.29
2023-07-02T10:31:54.945Z,99011.44
2023-07-02T10:34:48.283Z,99007.33
2023-07-02T10:37:14.681Z,99000.10
2023-07-02T10:39:41.532Z,98993.48
2023-07-02T10:42:08.989Z,98989.49
2023-07-02T10:44:46.297Z,98988.82
2023-07-02T10:47:13.075Z,98982.74
2023-07-02T10:49:39.644Z,98980.33
2023-07-02T10:52:07.896Z,98974.07
2023-07-02T10:54:45.193Z,98963.81
2023-07-02T10:57:14.024Z,98967.14
2023-07-02T10:59:40.553Z,98967.00
2023-07-02T11:02:07.315Z,98968.33
2023-07-02T11:04:34.438Z,98969.39
2023-07-02T11:07:01.673Z,98966.14
2023-07-02T11:09:28.389Z,98957.86
2023-07-02T11:12:02.397Z,98947.80
2023-07-02T11:14:32.942Z,98948.98
2023-07-02T11:17:04.035Z,98947.38
2023-07-02T11:19:30.624Z,98943.45
2023-07-02T11:22:04.764Z,98942.30
2023-07-02T11:24:35.990Z,98943.78
2023-07-02T11:27:08.561Z,98943.36
2023-07-02T11:29:37.063Z,98941.14
2023-07-02T11:32:11.020Z,98934.86
2023-07-02T11:34:38.206Z,98932.30
2023-07-02T11:37:05.113Z,98931.83
2023-07-02T11:39:32.650Z,98925.56
2023-07-02T11:41:59.192Z,98920.61
2023-07-02T11:44:25.718Z,98914.58
2023-07-02T11:46:52.546Z,98911.33
2023-07-02T11:49:19.760Z,98902.67
2023-07-02T11:51:50.218Z,98908.27
2023-07-02T11:54:19.011Z,98906.07
2023-07-02T11:56:45.970Z,98904.33
2023-07-02T11:59:12.440Z,98900.81
2023-07-02T12:01:39.079Z,98888.94
2023-07-02T12:04:07.885Z,98881.83
2023-07-02T12:06:36.820Z,98889.20
2023-07-02T12:09:03.897Z,98896.32
2023-07-02T12:11:31.072Z,98896.45
2023-07-02T12:13:57.773Z,98902.11
2023-07-02T12:16:24.705Z,98897.48
2023-07-02T12:18:51.477Z,98898.60
2023-07-02T12:21:18.998Z,98896.01
2023-07-02T12:23:45.855Z,98902.04
2023-07-02T12:26:12.497Z,98899.02
2023-07-02T12:28:39.035Z,98907.94
2023-07-02T12:31:05.698Z,98905.87
2023-07-02T12:33:32.591Z,98907.55
2023-07-02T12:35:59.942Z,98922.65
2023-07-02T12:38:26.473Z,98925.83
2023-07-02T12:40:52.934Z,98937.60
2023-07-02T12:43:20.443Z,98944.16
2023-07-02T12:45:47.679Z,98935.89
2023-07-02T12:48:14.672Z,98925.04
2023-07-02T12:50:41.149Z,98929.42
2023-07-02T12:53:07.903Z,98934.23
2023-07-02T12:55:34.295Z,98940.30
2023-07-02T12:58:01.352Z,98935.92
2023-07-02T13:00:28.534Z,98935.73
2023-07-02T13:03:03.722Z,98931.18
2023-07-02T13:05:32.173Z,98928.07
2023-07-02T13:07:58.835Z,98924.24
2023-07-02T13:10:25.289Z,98925.39
2023-07-02T13:12:52.421Z,98920.07
2023-07-02T13:15:20.414Z,98915.34
2023-07-02T13:17:47.292Z,98911.50
2023-07-02T13:20:13.907Z,98911.73
2023-07-02T13:22:40.620Z,98913.50
2023-07-02T13:25:07.628Z,98902.67
2023-07-02T13:27:34.271Z,98895.68
2023-07-02T13:30:01.054Z,98901.80
2023-07-02T13:32:30.772Z,98901.71
2023-07-02T13:34:58.594Z,98900.59
2023-07-02T13:37:25.423Z,98904.08
2023-07-02T13:39:52.086Z,98904.98
2023-07-02T13:42:18.772Z,98909.39
2023-07-02T13:44:45.630Z,98910.02
2023-07-02T13:47:12.185Z,98911.13
2023-07-02T13:49:38.843Z,98914.21
2023-07-02T13:52:05.859Z,98909.58
2023-07-02T13:54:34.261Z,98906.91
2023-07-02T13:57:02.045Z,98905.73
2023-07-02T13:59:29.130Z,98909.66
2023-07-02T14:01:55.699Z,98907.50
2023-07-02T14:04:22.124Z,98911.20
2023-07-02T14:06:48.644Z,98914.60
2023-07-02T14:09:15.442Z,98914.84
2023-07-02T14:11:43.632Z,98916.17
2023-07-02T14:14:10.145Z,98918.38
2023-07-02T14:16:37.066Z,98918.95
2023-07-02T14:19:03.786Z,98911.55
2023-07-02T14:21:30.935Z,98908.92
2023-07-02T14:23:58.531Z,98902.43
2023-07-02T14:26:25.266Z,98903.45
2023-07-02T14:28:53.165Z,98906.04
2023-07-02T14:31:19.860Z,98898.97
2023-07-02T14:33:46.349Z,98896.45
2023-07-02T14:36:12.902Z,98896.12
2023-07-02T14:38:39.394Z,98898.74
2023-07-02T14:41:06.453Z,98905.70
2023-07-02T14:43:33.383Z,98904.69
2023-07-02T14:46:01.705Z,98903.71
2023-07-02T14:48:28.362Z,98906.50
2023-07-02T14:50:57.234Z,98904.95
2023-07-02T14:53:24.373Z,98902.48
2023-07-02T14:55:51.027Z,98905.80
2023-07-02T14:58:18.013Z,98912.81
2023-07-02T15:00:45.623Z,98919.65
2023-07-02T15:03:13.154Z,98921.52
2023-07-02T15:05:40.278Z,98921.98
2023-07-02T15:08:08.394Z,98915.35
2023-07-02T15:10:35.671Z,98913.85
2023-07-02T15:13:02.223Z,98919.33
2023-07-02T15:15:28.936Z,98911.73
2023-07-02T15:17:57.696Z,98907.09
2023-07-02T15:20:25.133Z,98907.70
2023-07-02T15:22:51.820Z,98907.31
2023-07-02T15:25:18.833Z,98908.59
2023-07-02T15:27:45.463Z,98904.59
2023-07-02T15:30:12.839Z,98911.29
2023-07-02T15:32:39.637Z,98916.06
2023-07-02T15:35:06.363Z,98910.76
2023-07-02T15:37:34.917Z,98914.77
2023-07-02T15:40:01.580Z,98907.84
2023-07-02T15:42:30.231Z,98903.43
2023-07-02T15:44:57.365Z,98904.41
2023-07-02T15:47:24.183Z,98905.70
2023-07-02T15:49:51.199Z,98903.14
2023-07-02T15:52:17.927Z,98900.84
2023-07-02T15:54:44.501Z,98898.12
2023-07-02T15:57:11.318Z,98898.96
2023-07-02T15:59:40.361Z,98894.98
2023-07-02T16:02:07.155Z,98892.84
2023-07-02T16:04:33.839Z,98888.83
2023-07-02T16:08:22.490Z,98902.02
2023-07-02T16:10:49.829Z,98902.05
2023-07-02T16:13:17.218Z,98901.71
2023-07-02T16:15:44.517Z,98906.27
2023-07-02T16:18:11.881Z,98905.15
2023-07-02T16:20:39.268Z,98905.42
2023-07-02T16:23:08.074Z,98906.42
2023-07-02T16:25:35.540Z,98906.01
2023-07-02T16:28:04.279Z,98912.10
2023-07-02T16:30:34.086Z,98916.02
2023-07-02T16:33:01.792Z,98924.08
2023-07-02T16:35:29.080Z,98932.18
2023-07-02T16:37:56.508Z,98934.92
2023-07-02T16:40:23.900Z,98934.91
2023-07-02T16:42:51.296Z,98936.52
2023-07-02T16:45:18.590Z,98932.75
2023-07-02T16:47:47.264Z,98935.55
2023-07-02T16:50:14.810Z,98941.67
2023-07-02T16:52:42.152Z,98938.87
2023-07-02T16:55:09.529Z,98941.59
2023-07-02T16:57:36.856Z,98943.55
2023-07-02T17:00:05.887Z,98946.38
2023-07-02T17:02:33.279Z,98950.17
2023-07-02T17:05:00.751Z,98952.77
2023-07-02T17:07:28.183Z,98954.77
2023-07-02T17:09:56.152Z,98953.80
2023-07-02T17:12:23.536Z,98951.05
2023-07-02T17:14:51.753Z,98948.36
2023-07-02T17:19:34.822Z,98943.16
2023-07-02T17:22:03.398Z,98945.74
2023-07-02T17:24:33.394Z,98950.81
2023-07-02T17:27:00.744Z,98956.70
2023-07-02T17:29:30.126Z,98966.56
2023-07-02T17:31:58.666Z,98972.02
2023-07-02T17:34:27.286Z,98975.98
2023-07-02T17:37:05.908Z,98978.98
2023-07-02T17:39:34.061Z,98990.55
2023-07-02T17:42:01.743Z,98994.63
2023-07-02T17:44:33.288Z,98995.74
2023-07-02T17:47:05.220Z,98993.71
2023-07-02T17:49:33.114Z,98997.73
2023-07-02T17:52:00.496Z,99002.48
2023-07-02T17:54:29.255Z,99003.96
2023-07-02T17:56:56.928Z,99002.60
2023-07-02T17:59:26.782Z,99003.16
2023-07-02T18:01:55.521Z,99005.66
2023-07-02T18:04:24.608Z,99005.81
2023-07-02T18:06:58.700Z,99006.84
2023-07-02T18:09:26.160Z,99009.67
2023-07-02T18:11:57.278Z,99009.23
2023-07-02T18:14:27.695Z,99006.66
2023-07-02T18:16:55.282Z,99012.98
2023-07-02T18:19:26.566Z,99016.98
2023-07-02T18:21:55.956Z,99018.61
2023-07-02T18:24:23.762Z,99021.45
2023-07-02T18:26:52.632Z,99017.92
2023-07-02T18:29:20.030Z,99021.38
2023-07-02T18:31:47.432Z,99019.98
2023-07-02T18:34:16.280Z,99021.45
2023-07-02T18:36:49.997Z,99021.70
2023-07-02T18:39:18.066Z,99025.98
2023-07-02T18:41:48.508Z,99027.19
2023-07-02T18:44:15.938Z,99026.26
2023-07-02T18:46:43.422Z,99027.30
2023-07-02T18:49:11.044Z,99030.68
2023-07-02T18:51:39.062Z,99029.34
2023-07-02T18:54:06.447Z,99032.45
2023-07-02T18:56:34.013Z,99036.86
2023-07-02T18:59:03.089Z,99041.16
2023-07-02T19:01:30.747Z,99042.83
2023-07-02T19:03:59.080Z,99042.02
2023-07-02T19:06:26.544Z,99042.34
2023-07-02T19:08:53.998Z,99042.66
2023-07-02T19:11:21.395Z,99044.70
2023-07-02T19:13:48.813Z,99050.80
2023-07-02T19:16:16.303Z,99051.79
2023-07-02T19:18:43.770Z,99051.89
2023-07-02T19:21:14.940Z,99054.02
2023-07-02T19:23:42.386Z,99057.39
2023-07-02T19:26:09.863Z,99059.23
2023-07-02T19:28:37.251Z,99052.83
2023-07-02T19:31:05.201Z,99054.34
2023-07-02T19:33:32.746Z,99061.45
2023-07-02T19:36:06.270Z,99065.34
2023-07-02T19:38:33.757Z,99072.04
2023-07-02T19:41:01.178Z,99077.40
2023-07-02T19:43:28.558Z,99078.65
2023-07-02T19:45:58.548Z,99082.94
2023-07-02T19:48:26.041Z,99084.05
2023-07-02T19:51:01.164Z,99091.10
2023-07-02T19:53:28.546Z,99092.59
2023-07-02T19:55:56.071Z,99095.41
2023-07-02T19:58:23.757Z,99096.11
2023-07-02T20:00:51.449Z,99099.70
2023-07-02T20:03:23.515Z,99102.71
2023-07-02T20:05:52.095Z,99101.34
2023-07-02T20:08:20.078Z,99105.20
2023-07-02T20:10:47.401Z,99109.09
2023-07-02T20:13:14.912Z,99109.91
2023-07-02T20:15:42.228Z,99115.87
2023-07-02T20:18:09.796Z,99117.75
2023-07-02T20:20:37.163Z,99115.83
2023-07-02T20:23:04.665Z,99116.20
2023-07-02T20:28:08.979Z,99119.41
2023-07-02T20:30:36.337Z,99119.60
2023-07-02T20:33:03.820Z,99118.76
2023-07-02T20:35:31.458Z,99117.34
2023-07-02T20:38:01.172Z,99118.89
2023-07-02T20:40:28.641Z,99114.29
2023-07-02T20:42:58.359Z,99112.37
2023-07-02T20:45:31.306Z,99111.66
2023-07-02T20:48:04.394Z,99111.61
2023-07-02T20:50:31.827Z,99109.14
2023-07-02T20:52:59.286Z,99104.19
2023-07-02T20:55:26.674Z,99103.13
2023-07-02T20:57:53.992Z,99101.21
2023-07-02T21:00:21.552Z,99102.50
2023-07-02T21:02:49.381Z,99102.00
2023-07-02T21:05:17.672Z,99102.82
2023-07-02T21:07:45.328Z,99106.45
2023-07-02T21:10:12.680Z,99108.06
2023-07-02T21:12:40.089Z,99116.80
2023-07-02T21:15:08.557Z,99117.45
2023-07-02T21:17:35.926Z,99120.11
2023-07-02T21:20:03.427Z,99121.17
2023-07-02T21:22:30.885Z,99124.77
2023-07-02T21:24:58.372Z,99123.13
2023-07-02T21:27:25.792Z,99123.65
2023-07-02T21:29:55.101Z,99118.13
2023-07-02T21:32:23.141Z,99114.47
2023-07-02T21:34:55.765Z,99113.06
2023-07-02T21:37:23.303Z,99114.13
2023-07-02T21:39:50.782Z,99116.86
2023-07-02T21:42:18.164Z,99114.02
2023-07-02T21:44:45.625Z,99118.04
2023-07-02T21:47:13.008Z,99118.27
2023-07-02T21:49:40.365Z,99122.27
2023-07-02T21:52:08.045Z,99123.55
2023-07-02T21:54:35.409Z,99131.66
2023-07-02T21:57:02.790Z,99126.52
2023-07-02T21:59:33.049Z,99130.95
2023-07-02T22:02:00.471Z,99133.45
2023-07-02T22:04:30.625Z,99140.85
2023-07-02T22:06:58.433Z,99142.41
2023-07-02T22:09:26.022Z,99147.80
2023-07-02T22:11:53.403Z,99153.41
2023-07-02T22:14:20.787Z,99162.73
2023-07-02T22:16:48.284Z,99166.75
2023-07-02T22:19:15.657Z,99176.94
2023-07-02T22:21:45.946Z,99175.70
2023-07-02T22:24:14.364Z,99179.23
2023-07-02T22:26:41.700Z,99182.98
2023-07-02T22:29:09.030Z,99188.00
2023-07-02T22:31:36.471Z,99194.54
2023-07-02T22:34:03.895Z,99198.10
2023-07-02T22:36:31.339Z,99203.95
2023-07-02T22:38:58.651Z,99204.67
2023-07-02T22:41:25.989Z,99205.05
2023-07-02T22:43:53.379Z,99205.88
2023-07-02T22:46:20.920Z,99201.48
2023-07-02T22:48:48.485Z,99201.07
2023-07-02T22:51:16.080Z,99203.73
2023-07-02T22:53:43.394Z,99198.02
2023-07-02T22:56:16.399Z,99197.02
2023-07-02T22:58:43.945Z,99200.42
2023-07-02T23:01:11.621Z,99202.86
2023-07-02T23:03:39.148Z,99205.46
2023-07-02T23:06:06.576Z,99208.73
2023-07-02T23:08:33.949Z,99214.77
2023-07-02T23:11:01.264Z,99217.73
2023-07-02T23:13:28.637Z,99219.02
2023-07-02T23:15:56.960Z,99220.80
2023-07-02T23:18:24.590Z,99223.54
2023-07-02T23:20:54.200Z,99224.09
2023-07-02T23:23:21.813Z,99226.39
2023-07-02T23:25:49.890Z,99228.21
2023-07-02T23:28:17.433Z,99230.25
2023-07-02T23:30:44.921Z,99233.45
2023-07-02T23:33:13.809Z,99232.64
2023-07-02T23:35:41.275Z,99239.21
2023-07-02T23:38:08.725Z,99240.52
2023-07-02T23:40:36.970Z,99234.63
2023-07-02T23:43:04.702Z,99235.88
2023-07-02T23:45:32.202Z,99238.29
2023-07-02T23:47:59.926Z,99245.75
2023-07-02T23:50:27.770Z,99241.38
2023-07-02T23:52:55.089Z,99239.59
2023-07-02T23:55:22.491Z,99238.45
2023-07-02T23:57:50.196Z,99238.31
